63659 station(s) have been heard in the last 24 hours.

<< 411 412 413 414 415 416 417 >>
  Name/Id Latest heard Comment/Other Map
Symbol GB3HI 1788421021 145.700 Reduced coverage. FAULT Map
Symbol VA7ICM C 1788421021 2m Voice 145.640 -0.600 MHz Map
Symbol F5SIJ-7 1788421021 Bat=4.11V (100%) Map
Symbol N3TOY-10 1788421021 LoRa APRS Map
Symbol VA7ICM B 1788421021 440 Voice 447.000 -5.00 MHz Map
Symbol ER-ED3ZAG 1788421021 147.900MHz T123 R05k Link 1.298,700 Mhz Conf Catalana Map
Symbol N4NMT-B 1788421021 70cm Voice (D-Star) 434.10000MHz +0.0000MHz Map
Symbol WB8ERJ-10 1788421021 145.030MHz Winlink Packet Gateway Map
Symbol DL5OCD A 1788421021 70cm Voice (D-Star) 430.32500MHz +0.0000MHz Map
Symbol W9AZ-1 1788421021 W2,ILn, Kankakee W9AZ.com KARS Map
Symbol DO7LM-4 1788421021 APRS iGate im Leinebergland Map
Symbol EA8EE-3 1788421021 Map
Symbol UN7ZV 1788421021 +FT8 Russian station | https://t.me/ft8digiclub Map
Symbol K9CE B 1788421021 70cm Voice (D-Star) 433.55000MHz +0.0000MHz, APRS for ircDDBGateway Map
Symbol PJ2KA B 1788421021 70cm Voice (D-Star) 438.80000MHz +0.0000MHz Map
Symbol EB3DKE-J 1788421021 70cm Voice (D-Star) 438.12500MHz -7.6000MHz Map
Symbol VA7ICM A 1788421021 1.2 Voice 1259.00 -12 MHz Map
Symbol RA9WWX-11 1788421021 Weather in Ufa => 23 C - Wind => 0.35 m/S WSW - Humidity => 100 % - Pressure => 1018 hPa Map
Symbol F4KLO 1788421021 RC La Villette, Radio Telescope Map
Symbol VK7RCR-C 1788421021 2m Voice (D-Star) 146.96250MHz -1.6000MHz Map
Symbol JA3HRV 1788421021 BlueDV radio 20260710 Map
Symbol F4MZI-13 1788421021 httpS://sdr.f4mzi.fr / Weather in Saint-Amand-les-Eaux couvert Map
Symbol YM4KFT 1788421021 Batt U=13.4V. Temp.=??.? C Map
Symbol UA1ZKH-5 1788421021 DMR short-range hotspot. 433.100 CC1. Map
Symbol NARAL9P30 1788421021 AEMET | Nivel NARANJA | Temperatura mxima 40C | Vlido 04/09 11:00-18:59Z | 4 zonas Map
Symbol 9W2BIL-10 1788421021 IGATE LoRa APRS (POWERED BY SYABIL) Map
Symbol DB0DBN B 1788421021 70cm Voice (D-Star) 439.53125MHz -7.6000MHz Map
Symbol N0LUV-D 1788421021 70cm MMDVM Voice (DMR) 447.52500MHz -5.0000MHz, APRS for DMRGateway Map
Symbol IR1BP 1788421021 .. digipeater Montezemolo (CN) - JN44BJ - 770m. .. Map
Symbol OK2ILA-1 1788421021 Peet BroS WX Map
Symbol BG9IVV-15 1788421021 ONE WORD ONE DREAM Map
Symbol DL1THR-D 1788421020 70cm MMDVM Voice (DMR) 433.90000MHz +0.0000MHz, APRS for DMRGateway Map
Symbol W9ARP-B 1788421020 440 Voice 444.300 +5.00 MHz Map
Symbol JP2YHD-I 1788421020 D-STAR -> APRS Map
Symbol RK6MF-D 1788421020 70cm MMDVM Voice (DMR) 438.10000MHz +0.0000MHz, APRS for DMRGateway Map
Symbol YM7KOG 1788421020 GOLKOY TEPE, 1551m Aku Voltaji=14.0V Map
Symbol F1ZHO-3 1788421020 PHGD3230 F1ZHO-3 APRS 03 ALLIER UIDIGI 1.9B3 Map
Symbol OE3HUS-01 1788421020 B=093 Map
Symbol 4I1CLL-D 1788421020 70cm MMDVM Voice (DMR) 448.51000MHz +0.0000MHz, APRS for DMRGateway Map
Symbol SA2KLM I 1788421020 70cm Voice (D-Star) 434.05000MHz +0.0000MHz, APRS for ircDDBGateway Map
Symbol 5P0A-27 1788421020 Map
Symbol HYMOON 1788421020 12.2V -1C Honeymoon Digi VE7RIZ Map
Symbol W5DCG 1788421020 Map
Symbol DO3MBJ-15 1788421020 LoRa iGATE Pfaffenhofen JN58RM Map
Symbol DG2XB-10 1788421020 LoRa iGATE 433.775 MHz Map
Symbol WINTOH 1788421020 N8GD/TERA Packet BBS 145.07 MHz EMCOMM Map
Symbol W0IN-1 1788421020 'JARC Shuttle 1|3 Map
Symbol NARAL8HC6 1788421020 AEMET | Nivel NARANJA | Temperatura mxima 39C | Vlido 04/09 11:00-18:59Z | Ribera del Ebro Map
Symbol IZ6RND 1788421020 T=07:43:59 A=30.0 B=1.00 C=1.01 RF=1 RP=0 RS=0 F=14.065000 TP=30 TD=29 TF=34 P1V=1.79 P2V=0.03 D1V=1.28 D2V=0.06 F1V=3.90 F2V=0.88 LST=2026-09-03@07:43Z NXT=2026-09-03@07:44Z Map
Symbol N0BVE-MTK 1788421020 MINNETONKA DMR RPT. 442.650+. N0BVE@YAHOO.COM Map